sensor_id;sensor_type;location;lat;lon;timestamp;P1;durP1;ratioP1;P2;durP2;ratioP2
15261;SDS011;7733;51.554;13.590;2023-03-01T00:01:52;14.73;;;9.00;;
15261;SDS011;7733;51.554;13.590;2023-03-01T00:04:18;8.07;;;7.27;;
15261;SDS011;7733;51.554;13.590;2023-03-01T00:06:44;7.30;;;6.63;;
15261;SDS011;7733;51.554;13.590;2023-03-01T00:09:11;11.93;;;7.37;;
15261;SDS011;7733;51.554;13.590;2023-03-01T00:11:38;7.50;;;6.80;;
15261;SDS011;7733;51.554;13.590;2023-03-01T00:14:04;8.20;;;6.83;;
15261;SDS011;7733;51.554;13.590;2023-03-01T00:16:32;7.17;;;6.47;;
15261;SDS011;7733;51.554;13.590;2023-03-01T00:19:03;8.70;;;6.73;;
15261;SDS011;7733;51.554;13.590;2023-03-01T00:21:30;7.87;;;7.13;;
15261;SDS011;7733;51.554;13.590;2023-03-01T00:23:56;9.17;;;7.17;;
15261;SDS011;7733;51.554;13.590;2023-03-01T00:26:23;53.43;;;14.90;;
15261;SDS011;7733;51.554;13.590;2023-03-01T00:28:51;41.03;;;12.70;;
15261;SDS011;7733;51.554;13.590;2023-03-01T00:31:19;30.47;;;10.63;;
15261;SDS011;7733;51.554;13.590;2023-03-01T00:33:48;55.80;;;16.20;;
15261;SDS011;7733;51.554;13.590;2023-03-01T00:36:16;13.33;;;8.10;;
15261;SDS011;7733;51.554;13.590;2023-03-01T00:38:43;11.00;;;7.50;;
15261;SDS011;7733;51.554;13.590;2023-03-01T00:41:11;9.23;;;7.13;;
15261;SDS011;7733;51.554;13.590;2023-03-01T00:43:40;9.93;;;7.17;;
15261;SDS011;7733;51.554;13.590;2023-03-01T00:46:08;7.63;;;6.90;;
15261;SDS011;7733;51.554;13.590;2023-03-01T00:48:37;6.97;;;6.37;;
15261;SDS011;7733;51.554;13.590;2023-03-01T00:51:11;8.80;;;7.87;;
15261;SDS011;7733;51.554;13.590;2023-03-01T00:53:42;7.70;;;6.83;;
15261;SDS011;7733;51.554;13.590;2023-03-01T00:56:09;9.17;;;7.40;;
15261;SDS011;7733;51.554;13.590;2023-03-01T00:58:37;9.00;;;6.87;;
15261;SDS011;7733;51.554;13.590;2023-03-01T01:01:11;9.97;;;7.17;;
15261;SDS011;7733;51.554;13.590;2023-03-01T01:03:45;9.90;;;6.80;;
15261;SDS011;7733;51.554;13.590;2023-03-01T01:06:24;9.50;;;7.33;;
15261;SDS011;7733;51.554;13.590;2023-03-01T01:08:54;9.33;;;7.47;;
15261;SDS011;7733;51.554;13.590;2023-03-01T01:11:22;9.67;;;7.67;;
15261;SDS011;7733;51.554;13.590;2023-03-01T01:13:51;9.27;;;8.33;;
15261;SDS011;7733;51.554;13.590;2023-03-01T01:16:18;7.83;;;6.90;;
15261;SDS011;7733;51.554;13.590;2023-03-01T01:18:46;8.93;;;7.50;;
15261;SDS011;7733;51.554;13.590;2023-03-01T01:21:13;7.23;;;6.53;;
15261;SDS011;7733;51.554;13.590;2023-03-01T01:23:44;8.90;;;7.17;;
15261;SDS011;7733;51.554;13.590;2023-03-01T01:26:30;8.10;;;7.30;;
15261;SDS011;7733;51.554;13.590;2023-03-01T01:28:58;8.03;;;6.73;;
15261;SDS011;7733;51.554;13.590;2023-03-01T01:31:25;7.30;;;6.53;;
15261;SDS011;7733;51.554;13.590;2023-03-01T01:33:53;7.73;;;6.93;;
15261;SDS011;7733;51.554;13.590;2023-03-01T01:36:20;12.17;;;8.23;;
15261;SDS011;7733;51.554;13.590;2023-03-01T01:38:46;28.87;;;11.10;;
15261;SDS011;7733;51.554;13.590;2023-03-01T01:41:12;34.70;;;12.27;;
15261;SDS011;7733;51.554;13.590;2023-03-01T01:43:40;37.03;;;14.10;;
15261;SDS011;7733;51.554;13.590;2023-03-01T01:46:25;25.43;;;11.57;;
15261;SDS011;7733;51.554;13.590;2023-03-01T01:49:01;36.03;;;14.13;;
15261;SDS011;7733;51.554;13.590;2023-03-01T01:51:47;24.57;;;10.83;;
15261;SDS011;7733;51.554;13.590;2023-03-01T01:54:30;17.00;;;9.03;;
15261;SDS011;7733;51.554;13.590;2023-03-01T01:57:03;18.13;;;9.43;;
15261;SDS011;7733;51.554;13.590;2023-03-01T01:59:37;20.47;;;10.80;;
15261;SDS011;7733;51.554;13.590;2023-03-01T02:02:06;29.73;;;12.20;;
15261;SDS011;7733;51.554;13.590;2023-03-01T02:04:32;31.50;;;12.90;;
15261;SDS011;7733;51.554;13.590;2023-03-01T02:07:01;20.97;;;9.40;;
15261;SDS011;7733;51.554;13.590;2023-03-01T02:09:49;9.10;;;7.23;;
15261;SDS011;7733;51.554;13.590;2023-03-01T02:12:19;10.27;;;7.30;;
15261;SDS011;7733;51.554;13.590;2023-03-01T02:14:48;11.57;;;8.50;;
15261;SDS011;7733;51.554;13.590;2023-03-01T02:17:15;8.10;;;7.30;;
15261;SDS011;7733;51.554;13.590;2023-03-01T02:22:39;8.17;;;7.37;;
15261;SDS011;7733;51.554;13.590;2023-03-01T02:27:56;9.77;;;7.87;;
15261;SDS011;7733;51.554;13.590;2023-03-01T02:30:30;10.83;;;8.73;;
15261;SDS011;7733;51.554;13.590;2023-03-01T02:32:57;14.03;;;9.37;;
15261;SDS011;7733;51.554;13.590;2023-03-01T02:35:29;10.20;;;9.13;;
15261;SDS011;7733;51.554;13.590;2023-03-01T02:38:00;14.73;;;9.60;;
15261;SDS011;7733;51.554;13.590;2023-03-01T02:40:28;14.03;;;9.77;;
15261;SDS011;7733;51.554;13.590;2023-03-01T02:42:57;11.50;;;8.90;;
15261;SDS011;7733;51.554;13.590;2023-03-01T02:45:24;13.23;;;9.07;;
15261;SDS011;7733;51.554;13.590;2023-03-01T02:47:55;12.60;;;9.30;;
15261;SDS011;7733;51.554;13.590;2023-03-01T02:50:25;10.70;;;9.13;;
15261;SDS011;7733;51.554;13.590;2023-03-01T02:53:22;15.97;;;9.97;;
15261;SDS011;7733;51.554;13.590;2023-03-01T02:56:04;11.30;;;8.63;;
15261;SDS011;7733;51.554;13.590;2023-03-01T02:58:30;12.53;;;8.83;;
15261;SDS011;7733;51.554;13.590;2023-03-01T03:00:56;11.13;;;8.93;;
15261;SDS011;7733;51.554;13.590;2023-03-01T03:03:22;36.63;;;15.93;;
15261;SDS011;7733;51.554;13.590;2023-03-01T03:05:47;32.60;;;14.93;;
15261;SDS011;7733;51.554;13.590;2023-03-01T03:08:13;42.93;;;15.17;;
15261;SDS011;7733;51.554;13.590;2023-03-01T03:10:48;35.50;;;13.80;;
15261;SDS011;7733;51.554;13.590;2023-03-01T03:13:14;22.03;;;11.20;;
15261;SDS011;7733;51.554;13.590;2023-03-01T03:15:41;16.47;;;9.73;;
15261;SDS011;7733;51.554;13.590;2023-03-01T03:18:09;10.70;;;8.57;;
15261;SDS011;7733;51.554;13.590;2023-03-01T03:20:39;13.07;;;8.97;;
15261;SDS011;7733;51.554;13.590;2023-03-01T03:23:07;11.47;;;9.27;;
15261;SDS011;7733;51.554;13.590;2023-03-01T03:25:33;12.13;;;9.37;;
15261;SDS011;7733;51.554;13.590;2023-03-01T03:28:02;11.90;;;9.60;;
15261;SDS011;7733;51.554;13.590;2023-03-01T03:30:35;13.87;;;10.00;;
15261;SDS011;7733;51.554;13.590;2023-03-01T03:33:04;16.77;;;10.80;;
15261;SDS011;7733;51.554;13.590;2023-03-01T03:35:33;13.73;;;9.73;;
15261;SDS011;7733;51.554;13.590;2023-03-01T03:38:10;15.90;;;10.30;;
15261;SDS011;7733;51.554;13.590;2023-03-01T03:40:52;12.13;;;9.70;;
15261;SDS011;7733;51.554;13.590;2023-03-01T03:43:27;12.00;;;9.30;;
15261;SDS011;7733;51.554;13.590;2023-03-01T03:45:55;12.10;;;9.10;;
15261;SDS011;7733;51.554;13.590;2023-03-01T03:48:22;25.43;;;12.30;;
15261;SDS011;7733;51.554;13.590;2023-03-01T03:50:49;38.23;;;15.70;;
15261;SDS011;7733;51.554;13.590;2023-03-01T03:53:18;18.57;;;10.20;;
15261;SDS011;7733;51.554;13.590;2023-03-01T03:55:45;12.47;;;9.30;;
15261;SDS011;7733;51.554;13.590;2023-03-01T03:58:14;13.93;;;9.23;;
15261;SDS011;7733;51.554;13.590;2023-03-01T04:00:42;15.50;;;9.90;;
15261;SDS011;7733;51.554;13.590;2023-03-01T04:03:10;19.53;;;10.93;;
15261;SDS011;7733;51.554;13.590;2023-03-01T04:05:38;18.73;;;11.23;;
15261;SDS011;7733;51.554;13.590;2023-03-01T04:08:05;17.23;;;10.97;;
15261;SDS011;7733;51.554;13.590;2023-03-01T04:10:34;10.33;;;9.27;;
15261;SDS011;7733;51.554;13.590;2023-03-01T04:13:08;9.87;;;8.83;;
15261;SDS011;7733;51.554;13.590;2023-03-01T04:15:37;12.07;;;9.17;;
15261;SDS011;7733;51.554;13.590;2023-03-01T04:18:03;11.40;;;9.00;;
15261;SDS011;7733;51.554;13.590;2023-03-01T04:20:31;12.27;;;10.10;;
15261;SDS011;7733;51.554;13.590;2023-03-01T04:23:01;12.53;;;10.30;;
15261;SDS011;7733;51.554;13.590;2023-03-01T04:25:59;10.70;;;9.60;;
15261;SDS011;7733;51.554;13.590;2023-03-01T04:28:28;10.37;;;9.27;;
15261;SDS011;7733;51.554;13.590;2023-03-01T04:31:06;10.47;;;9.37;;
15261;SDS011;7733;51.554;13.590;2023-03-01T04:33:59;10.87;;;9.53;;
15261;SDS011;7733;51.554;13.590;2023-03-01T04:36:26;12.67;;;9.97;;
15261;SDS011;7733;51.554;13.590;2023-03-01T04:38:54;12.87;;;10.33;;
15261;SDS011;7733;51.554;13.590;2023-03-01T04:41:22;12.57;;;10.63;;
15261;SDS011;7733;51.554;13.590;2023-03-01T04:43:49;13.00;;;10.67;;
15261;SDS011;7733;51.554;13.590;2023-03-01T04:46:16;12.63;;;9.83;;
15261;SDS011;7733;51.554;13.590;2023-03-01T04:48:45;11.80;;;9.63;;
15261;SDS011;7733;51.554;13.590;2023-03-01T04:51:14;11.50;;;10.10;;
15261;SDS011;7733;51.554;13.590;2023-03-01T04:53:40;11.50;;;10.00;;
15261;SDS011;7733;51.554;13.590;2023-03-01T04:56:07;17.13;;;11.57;;
15261;SDS011;7733;51.554;13.590;2023-03-01T04:58:33;14.67;;;10.77;;
15261;SDS011;7733;51.554;13.590;2023-03-01T05:00:58;24.70;;;13.47;;
15261;SDS011;7733;51.554;13.590;2023-03-01T05:03:24;19.83;;;12.43;;
15261;SDS011;7733;51.554;13.590;2023-03-01T05:05:51;11.20;;;10.00;;
15261;SDS011;7733;51.554;13.590;2023-03-01T05:08:18;12.67;;;10.07;;
15261;SDS011;7733;51.554;13.590;2023-03-01T05:10:46;13.73;;;10.50;;
15261;SDS011;7733;51.554;13.590;2023-03-01T05:13:18;12.47;;;11.10;;
15261;SDS011;7733;51.554;13.590;2023-03-01T05:15:53;19.40;;;13.53;;
15261;SDS011;7733;51.554;13.590;2023-03-01T05:18:21;41.20;;;23.23;;
15261;SDS011;7733;51.554;13.590;2023-03-01T05:20:51;21.30;;;14.77;;
15261;SDS011;7733;51.554;13.590;2023-03-01T05:23:26;31.10;;;18.00;;
15261;SDS011;7733;51.554;13.590;2023-03-01T05:25:52;29.90;;;17.40;;
15261;SDS011;7733;51.554;13.590;2023-03-01T05:28:18;26.77;;;15.47;;
15261;SDS011;7733;51.554;13.590;2023-03-01T05:30:45;23.87;;;15.00;;
15261;SDS011;7733;51.554;13.590;2023-03-01T05:33:11;36.77;;;20.17;;
15261;SDS011;7733;51.554;13.590;2023-03-01T05:35:41;35.00;;;18.53;;
15261;SDS011;7733;51.554;13.590;2023-03-01T05:38:12;25.77;;;14.13;;
15261;SDS011;7733;51.554;13.590;2023-03-01T05:40:38;21.50;;;12.13;;
15261;SDS011;7733;51.554;13.590;2023-03-01T05:43:07;13.87;;;10.17;;
15261;SDS011;7733;51.554;13.590;2023-03-01T05:45:33;18.07;;;12.03;;
15261;SDS011;7733;51.554;13.590;2023-03-01T05:48:03;20.87;;;13.70;;
15261;SDS011;7733;51.554;13.590;2023-03-01T05:50:35;43.27;;;29.00;;
15261;SDS011;7733;51.554;13.590;2023-03-01T05:53:07;22.50;;;18.73;;
15261;SDS011;7733;51.554;13.590;2023-03-01T05:55:36;13.93;;;10.57;;
15261;SDS011;7733;51.554;13.590;2023-03-01T05:58:05;14.07;;;10.03;;
15261;SDS011;7733;51.554;13.590;2023-03-01T06:00:35;12.70;;;11.27;;
15261;SDS011;7733;51.554;13.590;2023-03-01T06:03:01;15.77;;;10.67;;
15261;SDS011;7733;51.554;13.590;2023-03-01T06:05:28;12.00;;;10.47;;
15261;SDS011;7733;51.554;13.590;2023-03-01T06:07:54;13.67;;;10.63;;
15261;SDS011;7733;51.554;13.590;2023-03-01T06:10:24;11.60;;;10.40;;
15261;SDS011;7733;51.554;13.590;2023-03-01T06:12:49;16.87;;;11.70;;
15261;SDS011;7733;51.554;13.590;2023-03-01T06:15:15;16.97;;;12.53;;
15261;SDS011;7733;51.554;13.590;2023-03-01T06:17:43;18.30;;;11.90;;
15261;SDS011;7733;51.554;13.590;2023-03-01T06:20:13;17.00;;;12.33;;
15261;SDS011;7733;51.554;13.590;2023-03-01T06:22:45;45.83;;;30.47;;
15261;SDS011;7733;51.554;13.590;2023-03-01T06:25:15;65.37;;;42.67;;
15261;SDS011;7733;51.554;13.590;2023-03-01T06:27:45;57.77;;;37.73;;
15261;SDS011;7733;51.554;13.590;2023-03-01T06:30:12;56.13;;;37.20;;
15261;SDS011;7733;51.554;13.590;2023-03-01T06:32:40;26.47;;;19.93;;
15261;SDS011;7733;51.554;13.590;2023-03-01T06:35:07;21.60;;;15.30;;
15261;SDS011;7733;51.554;13.590;2023-03-01T06:37:36;17.37;;;13.47;;
15261;SDS011;7733;51.554;13.590;2023-03-01T06:40:04;15.23;;;11.47;;
15261;SDS011;7733;51.554;13.590;2023-03-01T06:42:36;13.83;;;11.17;;
15261;SDS011;7733;51.554;13.590;2023-03-01T06:45:04;17.27;;;12.57;;
15261;SDS011;7733;51.554;13.590;2023-03-01T06:47:33;11.57;;;10.13;;
15261;SDS011;7733;51.554;13.590;2023-03-01T06:49:59;11.87;;;10.40;;
15261;SDS011;7733;51.554;13.590;2023-03-01T06:52:26;12.47;;;11.17;;
15261;SDS011;7733;51.554;13.590;2023-03-01T06:54:52;12.70;;;10.10;;
15261;SDS011;7733;51.554;13.590;2023-03-01T06:57:18;11.73;;;9.50;;
15261;SDS011;7733;51.554;13.590;2023-03-01T06:59:44;11.27;;;9.63;;
15261;SDS011;7733;51.554;13.590;2023-03-01T07:02:10;11.00;;;9.77;;
15261;SDS011;7733;51.554;13.590;2023-03-01T07:04:37;12.53;;;10.03;;
15261;SDS011;7733;51.554;13.590;2023-03-01T07:07:03;14.10;;;11.90;;
15261;SDS011;7733;51.554;13.590;2023-03-01T07:09:28;17.17;;;12.57;;
15261;SDS011;7733;51.554;13.590;2023-03-01T07:11:54;21.90;;;16.63;;
15261;SDS011;7733;51.554;13.590;2023-03-01T07:14:22;36.60;;;28.33;;
15261;SDS011;7733;51.554;13.590;2023-03-01T07:16:54;31.70;;;24.33;;
15261;SDS011;7733;51.554;13.590;2023-03-01T07:19:20;23.13;;;18.10;;
15261;SDS011;7733;51.554;13.590;2023-03-01T07:21:47;18.80;;;15.40;;
15261;SDS011;7733;51.554;13.590;2023-03-01T07:24:13;15.47;;;13.50;;
15261;SDS011;7733;51.554;13.590;2023-03-01T07:26:39;12.97;;;11.60;;
15261;SDS011;7733;51.554;13.590;2023-03-01T07:29:05;13.73;;;11.57;;
15261;SDS011;7733;51.554;13.590;2023-03-01T07:31:34;14.90;;;12.30;;
15261;SDS011;7733;51.554;13.590;2023-03-01T07:34:00;29.13;;;18.80;;
15261;SDS011;7733;51.554;13.590;2023-03-01T07:36:25;46.67;;;27.10;;
15261;SDS011;7733;51.554;13.590;2023-03-01T07:38:51;44.43;;;26.70;;
15261;SDS011;7733;51.554;13.590;2023-03-01T07:41:17;29.67;;;18.47;;
15261;SDS011;7733;51.554;13.590;2023-03-01T07:43:43;23.57;;;15.93;;
15261;SDS011;7733;51.554;13.590;2023-03-01T07:46:09;16.23;;;13.77;;
15261;SDS011;7733;51.554;13.590;2023-03-01T07:48:35;18.50;;;13.77;;
15261;SDS011;7733;51.554;13.590;2023-03-01T07:51:01;17.67;;;14.63;;
15261;SDS011;7733;51.554;13.590;2023-03-01T07:53:30;19.07;;;14.97;;
15261;SDS011;7733;51.554;13.590;2023-03-01T07:58:34;19.77;;;15.57;;
15261;SDS011;7733;51.554;13.590;2023-03-01T08:01:01;19.90;;;15.57;;
15261;SDS011;7733;51.554;13.590;2023-03-01T08:03:29;19.93;;;16.10;;
15261;SDS011;7733;51.554;13.590;2023-03-01T08:05:54;17.93;;;14.63;;
15261;SDS011;7733;51.554;13.590;2023-03-01T08:08:20;16.17;;;14.23;;
15261;SDS011;7733;51.554;13.590;2023-03-01T08:10:46;17.27;;;14.30;;
15261;SDS011;7733;51.554;13.590;2023-03-01T08:13:12;18.80;;;14.97;;
15261;SDS011;7733;51.554;13.590;2023-03-01T08:15:37;16.57;;;14.33;;
15261;SDS011;7733;51.554;13.590;2023-03-01T08:18:03;15.73;;;13.77;;
15261;SDS011;7733;51.554;13.590;2023-03-01T08:20:29;18.27;;;14.03;;
15261;SDS011;7733;51.554;13.590;2023-03-01T08:22:54;17.70;;;13.43;;
15261;SDS011;7733;51.554;13.590;2023-03-01T08:25:22;18.87;;;14.93;;
15261;SDS011;7733;51.554;13.590;2023-03-01T08:27:48;18.77;;;15.20;;
15261;SDS011;7733;51.554;13.590;2023-03-01T08:30:14;19.90;;;14.80;;
15261;SDS011;7733;51.554;13.590;2023-03-01T08:32:40;17.07;;;14.07;;
15261;SDS011;7733;51.554;13.590;2023-03-01T08:35:06;18.30;;;15.93;;
15261;SDS011;7733;51.554;13.590;2023-03-01T08:37:32;19.23;;;16.13;;
15261;SDS011;7733;51.554;13.590;2023-03-01T08:39:58;19.53;;;16.13;;
15261;SDS011;7733;51.554;13.590;2023-03-01T08:42:25;18.80;;;16.80;;
15261;SDS011;7733;51.554;13.590;2023-03-01T08:44:51;19.50;;;16.60;;
15261;SDS011;7733;51.554;13.590;2023-03-01T08:47:17;19.47;;;16.70;;
15261;SDS011;7733;51.554;13.590;2023-03-01T08:49:43;19.63;;;16.33;;
15261;SDS011;7733;51.554;13.590;2023-03-01T08:52:08;19.17;;;16.87;;
15261;SDS011;7733;51.554;13.590;2023-03-01T08:54:34;18.00;;;16.10;;
15261;SDS011;7733;51.554;13.590;2023-03-01T08:57:03;19.60;;;17.37;;
15261;SDS011;7733;51.554;13.590;2023-03-01T08:59:28;19.83;;;16.90;;
15261;SDS011;7733;51.554;13.590;2023-03-01T09:01:55;19.67;;;16.73;;
15261;SDS011;7733;51.554;13.590;2023-03-01T09:04:20;20.20;;;16.17;;
15261;SDS011;7733;51.554;13.590;2023-03-01T09:06:47;21.37;;;16.83;;
15261;SDS011;7733;51.554;13.590;2023-03-01T09:09:14;19.70;;;17.00;;
15261;SDS011;7733;51.554;13.590;2023-03-01T09:11:42;19.33;;;16.73;;
15261;SDS011;7733;51.554;13.590;2023-03-01T09:14:11;21.40;;;17.43;;
15261;SDS011;7733;51.554;13.590;2023-03-01T09:16:38;18.97;;;16.63;;
15261;SDS011;7733;51.554;13.590;2023-03-01T09:19:04;18.67;;;15.90;;
15261;SDS011;7733;51.554;13.590;2023-03-01T09:21:30;17.93;;;15.87;;
15261;SDS011;7733;51.554;13.590;2023-03-01T09:23:57;18.43;;;16.27;;
15261;SDS011;7733;51.554;13.590;2023-03-01T09:26:23;21.07;;;16.27;;
15261;SDS011;7733;51.554;13.590;2023-03-01T09:28:51;18.63;;;16.67;;
15261;SDS011;7733;51.554;13.590;2023-03-01T09:31:21;20.13;;;15.93;;
15261;SDS011;7733;51.554;13.590;2023-03-01T09:33:49;16.97;;;14.97;;
15261;SDS011;7733;51.554;13.590;2023-03-01T09:36:19;17.57;;;15.13;;
15261;SDS011;7733;51.554;13.590;2023-03-01T09:38:48;16.63;;;14.83;;
15261;SDS011;7733;51.554;13.590;2023-03-01T09:43:44;17.83;;;15.53;;
15261;SDS011;7733;51.554;13.590;2023-03-01T09:46:22;20.77;;;16.47;;
15261;SDS011;7733;51.554;13.590;2023-03-01T09:48:52;17.30;;;15.07;;
15261;SDS011;7733;51.554;13.590;2023-03-01T09:51:31;17.47;;;15.67;;
15261;SDS011;7733;51.554;13.590;2023-03-01T09:54:04;19.70;;;16.27;;
15261;SDS011;7733;51.554;13.590;2023-03-01T10:03:15;16.17;;;14.47;;
15261;SDS011;7733;51.554;13.590;2023-03-01T10:06:01;16.50;;;14.37;;
15261;SDS011;7733;51.554;13.590;2023-03-01T10:11:35;15.67;;;13.97;;
15261;SDS011;7733;51.554;13.590;2023-03-01T10:14:19;14.20;;;12.70;;
15261;SDS011;7733;51.554;13.590;2023-03-01T10:17:02;14.97;;;13.00;;
15261;SDS011;7733;51.554;13.590;2023-03-01T10:19:53;15.37;;;13.03;;
15261;SDS011;7733;51.554;13.590;2023-03-01T10:22:27;14.13;;;12.33;;
15261;SDS011;7733;51.554;13.590;2023-03-01T10:24:56;12.57;;;11.37;;
15261;SDS011;7733;51.554;13.590;2023-03-01T10:32:48;12.67;;;11.33;;
15261;SDS011;7733;51.554;13.590;2023-03-01T10:35:19;13.37;;;11.63;;
15261;SDS011;7733;51.554;13.590;2023-03-01T10:38:05;13.07;;;11.67;;
15261;SDS011;7733;51.554;13.590;2023-03-01T10:43:49;13.80;;;11.23;;
15261;SDS011;7733;51.554;13.590;2023-03-01T10:46:26;11.87;;;10.57;;
15261;SDS011;7733;51.554;13.590;2023-03-01T10:51:48;12.57;;;10.70;;
15261;SDS011;7733;51.554;13.590;2023-03-01T10:54:18;11.90;;;10.70;;
15261;SDS011;7733;51.554;13.590;2023-03-01T10:57:10;11.60;;;10.47;;
15261;SDS011;7733;51.554;13.590;2023-03-01T11:00:02;11.73;;;10.50;;
15261;SDS011;7733;51.554;13.590;2023-03-01T11:02:45;10.60;;;9.60;;
15261;SDS011;7733;51.554;13.590;2023-03-01T11:05:27;11.27;;;9.60;;
15261;SDS011;7733;51.554;13.590;2023-03-01T11:07:58;10.53;;;9.47;;
15261;SDS011;7733;51.554;13.590;2023-03-01T11:10:34;11.50;;;10.40;;
15261;SDS011;7733;51.554;13.590;2023-03-01T11:13:19;9.90;;;9.00;;
15261;SDS011;7733;51.554;13.590;2023-03-01T11:15:58;10.73;;;9.73;;
15261;SDS011;7733;51.554;13.590;2023-03-01T11:18:35;10.37;;;9.30;;
15261;SDS011;7733;51.554;13.590;2023-03-01T11:21:00;10.83;;;9.73;;
15261;SDS011;7733;51.554;13.590;2023-03-01T11:23:28;10.47;;;9.43;;
15261;SDS011;7733;51.554;13.590;2023-03-01T11:25:57;11.43;;;9.77;;
15261;SDS011;7733;51.554;13.590;2023-03-01T11:28:29;10.93;;;9.83;;
15261;SDS011;7733;51.554;13.590;2023-03-01T11:30:56;10.13;;;9.07;;
15261;SDS011;7733;51.554;13.590;2023-03-01T11:42:06;10.43;;;9.03;;
15261;SDS011;7733;51.554;13.590;2023-03-01T11:44:46;9.97;;;9.00;;
15261;SDS011;7733;51.554;13.590;2023-03-01T11:49:58;10.40;;;8.80;;
15261;SDS011;7733;51.554;13.590;2023-03-01T12:10:15;7.37;;;6.77;;
15261;SDS011;7733;51.554;13.590;2023-03-01T12:16:09;7.23;;;6.53;;
15261;SDS011;7733;51.554;13.590;2023-03-01T12:24:25;7.50;;;6.90;;
15261;SDS011;7733;51.554;13.590;2023-03-01T12:49:44;7.40;;;6.80;;
15261;SDS011;7733;51.554;13.590;2023-03-01T12:52:34;15.47;;;12.67;;
15261;SDS011;7733;51.554;13.590;2023-03-01T12:55:36;9.27;;;8.33;;
15261;SDS011;7733;51.554;13.590;2023-03-01T13:04:23;7.80;;;7.10;;
15261;SDS011;7733;51.554;13.590;2023-03-01T13:10:24;6.43;;;5.83;;
15261;SDS011;7733;51.554;13.590;2023-03-01T13:15:36;6.70;;;6.10;;
15261;SDS011;7733;51.554;13.590;2023-03-01T13:31:09;7.77;;;7.03;;
15261;SDS011;7733;51.554;13.590;2023-03-01T13:33:59;8.57;;;7.10;;
15261;SDS011;7733;51.554;13.590;2023-03-01T13:39:39;7.10;;;6.50;;
15261;SDS011;7733;51.554;13.590;2023-03-01T13:42:24;8.00;;;7.23;;
15261;SDS011;7733;51.554;13.590;2023-03-01T13:44:58;8.50;;;7.70;;
15261;SDS011;7733;51.554;13.590;2023-03-01T13:47:25;8.53;;;7.80;;
15261;SDS011;7733;51.554;13.590;2023-03-01T13:49:59;8.77;;;7.87;;
15261;SDS011;7733;51.554;13.590;2023-03-01T13:57:38;8.60;;;7.77;;
15261;SDS011;7733;51.554;13.590;2023-03-01T14:03:04;8.27;;;6.37;;
15261;SDS011;7733;51.554;13.590;2023-03-01T14:05:41;5.80;;;5.40;;
15261;SDS011;7733;51.554;13.590;2023-03-01T14:08:45;5.83;;;5.33;;
15261;SDS011;7733;51.554;13.590;2023-03-01T14:12:00;6.23;;;5.67;;
15261;SDS011;7733;51.554;13.590;2023-03-01T14:20:23;6.40;;;5.73;;
15261;SDS011;7733;51.554;13.590;2023-03-01T14:22:53;5.13;;;4.73;;
15261;SDS011;7733;51.554;13.590;2023-03-01T14:25:33;5.07;;;4.60;;
15261;SDS011;7733;51.554;13.590;2023-03-01T14:30:43;5.70;;;5.20;;
15261;SDS011;7733;51.554;13.590;2023-03-01T14:38:37;9.20;;;8.30;;
15261;SDS011;7733;51.554;13.590;2023-03-01T14:41:16;6.60;;;5.00;;
15261;SDS011;7733;51.554;13.590;2023-03-01T14:43:53;5.90;;;5.40;;
15261;SDS011;7733;51.554;13.590;2023-03-01T14:46:35;6.20;;;5.70;;
15261;SDS011;7733;51.554;13.590;2023-03-01T14:49:16;6.50;;;6.00;;
15261;SDS011;7733;51.554;13.590;2023-03-01T14:51:50;7.27;;;6.47;;
15261;SDS011;7733;51.554;13.590;2023-03-01T14:54:27;6.30;;;5.23;;
15261;SDS011;7733;51.554;13.590;2023-03-01T14:57:23;5.90;;;5.40;;
15261;SDS011;7733;51.554;13.590;2023-03-01T14:59:52;5.80;;;5.20;;
15261;SDS011;7733;51.554;13.590;2023-03-01T15:02:25;6.10;;;5.50;;
15261;SDS011;7733;51.554;13.590;2023-03-01T15:04:55;6.17;;;5.67;;
15261;SDS011;7733;51.554;13.590;2023-03-01T15:07:33;5.70;;;5.20;;
15261;SDS011;7733;51.554;13.590;2023-03-01T15:10:05;10.23;;;8.23;;
15261;SDS011;7733;51.554;13.590;2023-03-01T15:12:40;5.53;;;5.03;;
15261;SDS011;7733;51.554;13.590;2023-03-01T15:18:32;4.83;;;4.43;;
15261;SDS011;7733;51.554;13.590;2023-03-01T15:26:51;5.27;;;4.70;;
15261;SDS011;7733;51.554;13.590;2023-03-01T15:29:23;5.00;;;4.67;;
15261;SDS011;7733;51.554;13.590;2023-03-01T15:32:40;4.60;;;4.20;;
15261;SDS011;7733;51.554;13.590;2023-03-01T15:34:54;4.47;;;4.17;;
15261;SDS011;7733;51.554;13.590;2023-03-01T15:37:38;5.23;;;4.77;;
15261;SDS011;7733;51.554;13.590;2023-03-01T15:40:17;7.13;;;6.43;;
15261;SDS011;7733;51.554;13.590;2023-03-01T15:42:49;5.20;;;4.70;;
15261;SDS011;7733;51.554;13.590;2023-03-01T15:47:45;5.37;;;4.90;;
15261;SDS011;7733;51.554;13.590;2023-03-01T15:50:25;5.50;;;5.00;;
15261;SDS011;7733;51.554;13.590;2023-03-01T15:52:55;5.20;;;4.80;;
15261;SDS011;7733;51.554;13.590;2023-03-01T15:55:25;5.43;;;4.93;;
15261;SDS011;7733;51.554;13.590;2023-03-01T15:58:02;5.97;;;5.27;;
15261;SDS011;7733;51.554;13.590;2023-03-01T16:00:34;5.63;;;5.13;;
15261;SDS011;7733;51.554;13.590;2023-03-01T16:03:00;6.10;;;5.50;;
15261;SDS011;7733;51.554;13.590;2023-03-01T16:05:27;6.67;;;6.00;;
15261;SDS011;7733;51.554;13.590;2023-03-01T16:07:57;6.83;;;5.90;;
15261;SDS011;7733;51.554;13.590;2023-03-01T16:10:24;9.07;;;8.13;;
15261;SDS011;7733;51.554;13.590;2023-03-01T16:12:50;13.33;;;10.60;;
15261;SDS011;7733;51.554;13.590;2023-03-01T16:15:21;8.90;;;8.20;;
15261;SDS011;7733;51.554;13.590;2023-03-01T16:17:56;6.53;;;6.00;;
15261;SDS011;7733;51.554;13.590;2023-03-01T16:22:53;5.73;;;5.20;;
15261;SDS011;7733;51.554;13.590;2023-03-01T16:25:19;5.80;;;5.30;;
15261;SDS011;7733;51.554;13.590;2023-03-01T16:27:47;6.30;;;5.30;;
15261;SDS011;7733;51.554;13.590;2023-03-01T16:30:16;6.00;;;5.40;;
15261;SDS011;7733;51.554;13.590;2023-03-01T16:32:45;6.00;;;5.40;;
15261;SDS011;7733;51.554;13.590;2023-03-01T16:35:14;6.67;;;6.07;;
15261;SDS011;7733;51.554;13.590;2023-03-01T16:37:43;6.83;;;6.13;;
15261;SDS011;7733;51.554;13.590;2023-03-01T16:40:16;6.30;;;5.80;;
15261;SDS011;7733;51.554;13.590;2023-03-01T16:42:50;6.53;;;5.93;;
15261;SDS011;7733;51.554;13.590;2023-03-01T16:45:17;5.30;;;4.90;;
15261;SDS011;7733;51.554;13.590;2023-03-01T16:47:43;5.83;;;5.17;;
15261;SDS011;7733;51.554;13.590;2023-03-01T16:50:09;5.53;;;5.10;;
15261;SDS011;7733;51.554;13.590;2023-03-01T16:52:35;8.57;;;6.80;;
15261;SDS011;7733;51.554;13.590;2023-03-01T16:55:03;7.40;;;6.70;;
15261;SDS011;7733;51.554;13.590;2023-03-01T16:57:30;6.67;;;6.07;;
15261;SDS011;7733;51.554;13.590;2023-03-01T16:59:59;5.90;;;5.30;;
15261;SDS011;7733;51.554;13.590;2023-03-01T17:02:25;5.63;;;5.17;;
15261;SDS011;7733;51.554;13.590;2023-03-01T17:04:54;8.73;;;6.73;;
15261;SDS011;7733;51.554;13.590;2023-03-01T17:07:21;9.70;;;8.80;;
15261;SDS011;7733;51.554;13.590;2023-03-01T17:09:47;11.80;;;9.73;;
15261;SDS011;7733;51.554;13.590;2023-03-01T17:12:13;14.13;;;11.80;;
15261;SDS011;7733;51.554;13.590;2023-03-01T17:14:40;11.97;;;10.77;;
15261;SDS011;7733;51.554;13.590;2023-03-01T17:17:07;14.60;;;9.13;;
15261;SDS011;7733;51.554;13.590;2023-03-01T17:19:34;17.93;;;9.07;;
15261;SDS011;7733;51.554;13.590;2023-03-01T17:22:04;11.97;;;8.00;;
15261;SDS011;7733;51.554;13.590;2023-03-01T17:24:32;10.80;;;8.57;;
15261;SDS011;7733;51.554;13.590;2023-03-01T17:27:00;66.73;;;49.40;;
15261;SDS011;7733;51.554;13.590;2023-03-01T17:29:26;39.20;;;31.40;;
15261;SDS011;7733;51.554;13.590;2023-03-01T17:31:51;15.50;;;13.73;;